Angola, Louisiana
Current Conditions -  °F | °C
As of 2:35 PM on Thursday 29 Jan 2015 (Local Time) from KHZR Reporting Station
Clear Clear  
Wind Chill: 75°   Ceiling: Unl
Heat Index: 75°   Visibility: 10mi
Dew Point: 53°   Wind: 9mph
Humidity: 46%   Direction: 240°WSW
Pressure: 30.17"   Gusts: NA
Location:  30.95°N, 91.57°W
Report Text: KHZR 292035Z AUTO 24008KT 10SM CLR 24/12 A3017 RMK AO2 T02380115
Loading
Personal Weather Stations






























Interactive Weather Map New forecast layout! Learn more

10-Day Weather Forecast

Advertisements
Track Severe Weather on mobile